Time;durP1;ratioP1;P1;durP2;ratioP2;P2;SDS_P1;SDS_P2;PMS_P1;PMS_P2;Temp;Humidity;BMP_temperature;BMP_pressure;BME280_temperature;BME280_humidity;BME280_pressure;Samples;Min_cycle;Max_cycle;Signal;HPM_P1;HPM_P2
2023/07/21 00:00:25;;;;;;;0.70;0.70;;;18.70;93.90;;;;;;5108702;28;20188;-67
2023/07/21 00:02:53;;;;;;;0.68;0.68;;;18.60;93.90;;;;;;5084831;28;20211;-67
2023/07/21 00:05:24;;;;;;;1.05;0.70;;;18.60;94.10;;;;;;5102775;28;20614;-67
2023/07/21 00:07:51;;;;;;;0.95;0.63;;;18.60;94.20;;;;;;5107096;28;20344;-66
2023/07/21 00:10:18;;;;;;;0.50;0.50;;;18.60;94.30;;;;;;5109358;28;20206;-67
2023/07/21 00:12:47;;;;;;;1.30;0.82;;;18.70;94.50;;;;;;5109367;28;20291;-67
2023/07/21 00:15:17;;;;;;;0.55;0.55;;;18.70;94.50;;;;;;5109625;28;20778;-67
2023/07/21 00:17:44;;;;;;;0.50;0.50;;;18.60;94.50;;;;;;5109403;28;20261;-68
2023/07/21 00:20:14;;;;;;;0.50;0.50;;;18.60;94.60;;;;;;5108841;28;20191;-67
2023/07/21 00:22:43;;;;;;;0.60;0.60;;;18.60;94.70;;;;;;5109499;28;21406;-66
2023/07/21 00:25:11;;;;;;;0.70;0.70;;;18.50;95.10;;;;;;5108818;28;20186;-67
2023/07/21 00:27:40;;;;;;;0.73;0.57;;;18.60;95.00;;;;;;5091398;28;20195;-67
2023/07/21 00:30:08;;;;;;;0.70;0.70;;;18.60;95.10;;;;;;5081628;28;20233;-67
2023/07/21 00:32:36;;;;;;;0.77;0.70;;;18.60;95.40;;;;;;5067871;28;20614;-67
2023/07/21 00:35:05;;;;;;;0.40;0.40;;;18.60;95.20;;;;;;5067683;28;20205;-68
2023/07/21 00:37:32;;;;;;;0.50;0.50;;;18.60;95.20;;;;;;5057265;28;20610;-68
2023/07/21 00:40:03;;;;;;;0.50;0.50;;;18.50;95.20;;;;;;5068754;28;20201;-68
2023/07/21 00:42:30;;;;;;;0.63;0.63;;;18.50;95.30;;;;;;5066830;28;20655;-67
2023/07/21 00:44:57;;;;;;;0.50;0.50;;;18.50;95.70;;;;;;5068730;28;20523;-68
2023/07/21 00:47:25;;;;;;;0.40;0.40;;;18.50;95.40;;;;;;5066256;28;20226;-68
2023/07/21 00:49:53;;;;;;;0.65;0.60;;;18.50;95.50;;;;;;5068443;28;20197;-67
2023/07/21 00:52:21;;;;;;;0.95;0.70;;;18.50;95.70;;;;;;5066725;28;20568;-67
2023/07/21 00:54:48;;;;;;;0.60;0.60;;;18.50;95.80;;;;;;5068231;28;20236;-67
2023/07/21 00:57:17;;;;;;;0.75;0.75;;;18.50;95.80;;;;;;5069575;28;20274;-67
2023/07/21 00:59:44;;;;;;;0.90;0.80;;;18.40;95.80;;;;;;5067547;28;20727;-67
2023/07/21 01:02:11;;;;;;;0.55;0.50;;;18.40;95.90;;;;;;5068781;28;20514;-67
2023/07/21 01:04:38;;;;;;;0.60;0.60;;;18.30;96.00;;;;;;5068318;28;20250;-67
2023/07/21 01:07:08;;;;;;;0.50;0.50;;;18.30;96.10;;;;;;5068837;28;20416;-67
2023/07/21 01:09:36;;;;;;;1.13;0.60;;;18.30;96.10;;;;;;5063175;28;20200;-67
2023/07/21 01:12:06;;;;;;;0.52;0.52;;;18.30;96.20;;;;;;5066286;28;20293;-67
2023/07/21 01:14:35;;;;;;;1.98;0.70;;;18.20;96.30;;;;;;5068114;28;20221;-67
2023/07/21 01:17:03;;;;;;;0.70;0.70;;;18.30;96.50;;;;;;5072752;28;20254;-68
2023/07/21 01:19:31;;;;;;;0.73;0.73;;;18.30;96.50;;;;;;5071305;28;20258;-67
2023/07/21 01:22:04;;;;;;;0.75;0.75;;;18.30;96.50;;;;;;5067225;28;20201;-67
2023/07/21 01:24:37;;;;;;;0.70;0.70;;;18.20;96.50;;;;;;5072209;28;20220;-67
2023/07/21 01:27:07;;;;;;;1.25;0.57;;;18.20;96.60;;;;;;5072938;28;20250;-67
2023/07/21 01:29:36;;;;;;;0.50;0.50;;;18.20;96.70;;;;;;5072021;28;20894;-67
2023/07/21 01:32:08;;;;;;;0.70;0.70;;;18.20;96.80;;;;;;5113070;28;20184;-67
2023/07/21 01:34:36;;;;;;;0.77;0.77;;;18.10;96.80;;;;;;5112554;28;20249;-68
2023/07/21 01:37:04;;;;;;;0.68;0.68;;;18.10;96.80;;;;;;5076728;28;20287;-67
2023/07/21 01:39:34;;;;;;;0.60;0.60;;;18.10;97.00;;;;;;5091863;28;20200;-67
2023/07/21 01:42:01;;;;;;;1.48;0.70;;;18.10;97.10;;;;;;5113131;28;20274;-67
2023/07/21 01:44:29;;;;;;;0.75;0.70;;;18.10;97.10;;;;;;5112621;28;20297;-67
2023/07/21 01:46:56;;;;;;;1.20;0.63;;;18.10;97.10;;;;;;5112289;28;20367;-67
2023/07/21 01:49:24;;;;;;;0.40;0.40;;;18.20;97.20;;;;;;5093905;28;20200;-67
2023/07/21 01:51:57;;;;;;;0.70;0.70;;;18.10;97.20;;;;;;5112001;28;20196;-66
2023/07/21 01:54:31;;;;;;;0.60;0.60;;;18.10;97.30;;;;;;5112436;28;20200;-67
2023/07/21 01:57:04;;;;;;;5.78;0.70;;;18.10;97.40;;;;;;5112879;28;20191;-67
2023/07/21 01:59:33;;;;;;;0.63;0.63;;;18.10;97.40;;;;;;5112146;28;20215;-67
2023/07/21 02:02:00;;;;;;;0.70;0.70;;;18.10;97.50;;;;;;5093824;28;20299;-67
2023/07/21 02:04:28;;;;;;;1.95;0.75;;;18.00;97.50;;;;;;5109527;28;20199;-66
2023/07/21 02:06:55;;;;;;;2.45;0.90;;;18.00;97.60;;;;;;5088455;28;20196;-67
2023/07/21 02:09:22;;;;;;;1.52;0.93;;;18.00;97.70;;;;;;5094276;28;20747;-67
2023/07/21 02:11:49;;;;;;;1.77;0.73;;;18.00;97.80;;;;;;5076054;28;20223;-67
2023/07/21 02:14:40;;;;;;;0.85;0.80;;;18.00;97.80;;;;;;5104425;28;20212;-66
2023/07/21 02:17:08;;;;;;;0.70;0.70;;;18.00;98.20;;;;;;5090557;28;20319;-66
2023/07/21 02:19:36;;;;;;;1.33;0.70;;;18.00;97.90;;;;;;5091713;28;20214;-67
2023/07/21 02:22:03;;;;;;;1.10;0.65;;;18.00;97.90;;;;;;5111783;28;20690;-66
2023/07/21 02:24:31;;;;;;;0.73;0.70;;;18.00;97.90;;;;;;5090240;28;20187;-67
2023/07/21 02:26:59;;;;;;;0.60;0.60;;;18.00;97.90;;;;;;5112166;28;20675;-66
2023/07/21 02:29:29;;;;;;;1.10;0.80;;;18.00;98.10;;;;;;5110844;28;20248;-66
2023/07/21 02:31:59;;;;;;;1.75;0.80;;;18.00;98.10;;;;;;5093668;28;20192;-67
2023/07/21 02:34:26;;;;;;;3.38;0.65;;;18.00;98.10;;;;;;5109284;28;20269;-67
2023/07/21 02:36:53;;;;;;;0.80;0.50;;;18.00;98.20;;;;;;5089358;28;20562;-67
2023/07/21 02:39:20;;;;;;;1.42;0.50;;;18.00;98.20;;;;;;5111715;28;20271;-67
2023/07/21 02:41:47;;;;;;;1.45;0.63;;;18.00;98.30;;;;;;5111554;28;20253;-67
2023/07/21 02:44:14;;;;;;;0.57;0.57;;;18.00;98.30;;;;;;5111607;28;20216;-67
2023/07/21 02:46:42;;;;;;;0.68;0.68;;;18.00;98.40;;;;;;5111474;28;20191;-67
2023/07/21 02:49:10;;;;;;;0.63;0.50;;;17.90;98.30;;;;;;5110511;28;20300;-67
2023/07/21 02:51:38;;;;;;;1.63;0.82;;;18.00;98.30;;;;;;5092347;28;20203;-67
2023/07/21 02:54:05;;;;;;;1.60;0.80;;;18.00;98.40;;;;;;5111690;28;20627;-67
2023/07/21 02:56:34;;;;;;;0.47;0.47;;;18.00;98.40;;;;;;5110720;28;20218;-66
2023/07/21 02:59:10;;;;;;;0.57;0.57;;;18.00;98.40;;;;;;5092851;28;20223;-66
2023/07/21 03:01:39;;;;;;;1.45;0.73;;;18.00;98.40;;;;;;5092691;28;20303;-67
2023/07/21 03:04:07;;;;;;;0.82;0.82;;;17.90;98.50;;;;;;5090397;28;20213;-66
2023/07/21 03:06:46;;;;;;;0.88;0.50;;;18.00;98.60;;;;;;5092096;28;20742;-66
2023/07/21 03:09:14;;;;;;;0.80;0.80;;;18.00;98.50;;;;;;5092497;28;20215;-67
2023/07/21 03:11:42;;;;;;;0.63;0.63;;;18.00;98.80;;;;;;5110904;28;20693;-67
2023/07/21 03:14:29;;;;;;;0.80;0.80;;;18.00;98.50;;;;;;5085823;28;20291;-68
2023/07/21 03:16:56;;;;;;;0.70;0.70;;;18.00;98.60;;;;;;5092427;28;20204;-67
2023/07/21 03:19:23;;;;;;;0.55;0.55;;;18.00;98.60;;;;;;5088679;28;20196;-68
2023/07/21 03:21:54;;;;;;;1.75;0.70;;;17.90;98.50;;;;;;5091291;28;20211;-66
2023/07/21 03:24:21;;;;;;;0.60;0.60;;;18.00;98.60;;;;;;5091874;28;20188;-68
2023/07/21 03:26:49;;;;;;;0.50;0.45;;;18.00;98.70;;;;;;5091425;28;20378;-66
2023/07/21 03:29:18;;;;;;;0.40;0.40;;;18.00;98.70;;;;;;5091880;28;21084;-67
2023/07/21 03:31:48;;;;;;;0.85;0.75;;;18.00;98.70;;;;;;5090460;28;20240;-67
2023/07/21 03:34:17;;;;;;;0.77;0.77;;;18.00;98.70;;;;;;5087579;28;20224;-66
2023/07/21 03:36:44;;;;;;;0.52;0.52;;;18.00;98.70;;;;;;5110178;28;20220;-66
2023/07/21 03:39:12;;;;;;;0.57;0.57;;;18.00;98.70;;;;;;5090585;28;20644;-66
2023/07/21 03:41:39;;;;;;;0.60;0.60;;;18.00;98.90;;;;;;5110790;28;20278;-67
2023/07/21 03:44:07;;;;;;;0.60;0.60;;;18.00;98.80;;;;;;5110610;28;20286;-66
2023/07/21 03:46:35;;;;;;;0.77;0.73;;;18.00;98.90;;;;;;5091922;28;20219;-67
2023/07/21 03:49:13;;;;;;;0.80;0.80;;;18.00;98.90;;;;;;5086954;28;20298;-66
2023/07/21 03:51:44;;;;;;;0.68;0.65;;;18.00;99.20;;;;;;5091627;28;20287;-66
2023/07/21 03:54:16;;;;;;;2.35;0.88;;;18.00;98.90;;;;;;5084044;28;20211;-66
2023/07/21 03:56:43;;;;;;;1.50;0.90;;;18.00;98.90;;;;;;5083096;28;20559;-66
2023/07/21 03:59:12;;;;;;;1.83;0.80;;;18.10;99.00;;;;;;5092084;28;20221;-66
2023/07/21 04:01:40;;;;;;;0.63;0.63;;;18.10;98.90;;;;;;5091826;28;20276;-66
2023/07/21 04:04:07;;;;;;;1.65;1.00;;;18.10;99.00;;;;;;5089571;28;20303;-67
2023/07/21 04:06:34;;;;;;;0.60;0.60;;;18.00;99.00;;;;;;5084942;28;20240;-66
2023/07/21 04:09:02;;;;;;;0.70;0.63;;;18.10;99.00;;;;;;5091839;28;20202;-66
2023/07/21 04:11:30;;;;;;;0.57;0.57;;;18.20;99.00;;;;;;5108744;28;20254;-66
2023/07/21 04:13:59;;;;;;;1.65;1.00;;;18.20;99.00;;;;;;5110818;28;20218;-67
2023/07/21 04:16:26;;;;;;;1.20;0.90;;;18.20;99.10;;;;;;5103962;28;20229;-66
2023/07/21 04:18:53;;;;;;;1.20;0.73;;;18.20;99.10;;;;;;5091912;28;20219;-67
2023/07/21 04:21:20;;;;;;;3.08;0.60;;;18.20;99.10;;;;;;5090446;28;20203;-67
2023/07/21 04:23:49;;;;;;;0.50;0.50;;;18.20;99.10;;;;;;5092047;28;20577;-66
2023/07/21 04:26:17;;;;;;;2.08;0.60;;;18.30;99.20;;;;;;5088271;28;20199;-66
2023/07/21 04:28:46;;;;;;;0.77;0.77;;;18.30;99.30;;;;;;5106176;28;20295;-66
2023/07/21 04:31:14;;;;;;;0.77;0.77;;;18.30;99.20;;;;;;5089989;28;20239;-67
2023/07/21 04:33:52;;;;;;;0.50;0.50;;;18.30;99.20;;;;;;5091038;28;20188;-67
2023/07/21 04:36:19;;;;;;;0.90;0.90;;;18.30;99.10;;;;;;5090809;28;20242;-67
2023/07/21 04:38:47;;;;;;;0.60;0.60;;;18.30;99.10;;;;;;5091814;28;20283;-67
2023/07/21 04:41:17;;;;;;;1.10;0.90;;;18.30;99.50;;;;;;5091113;28;20191;-66
2023/07/21 04:43:45;;;;;;;0.70;0.70;;;18.40;99.30;;;;;;5092100;28;20250;-66
2023/07/21 04:46:13;;;;;;;1.25;1.15;;;18.40;99.30;;;;;;5093140;28;20192;-66
2023/07/21 04:48:43;;;;;;;0.82;0.82;;;18.40;99.30;;;;;;5095519;28;20235;-66
2023/07/21 04:51:14;;;;;;;1.92;0.98;;;18.40;99.30;;;;;;5094640;28;20204;-66
2023/07/21 04:53:43;;;;;;;2.17;0.98;;;18.40;99.20;;;;;;5095391;28;20203;-67
2023/07/21 04:56:10;;;;;;;0.77;0.77;;;18.50;99.20;;;;;;5094557;28;20222;-67
2023/07/21 04:58:46;;;;;;;1.05;0.85;;;18.50;99.20;;;;;;5094742;28;20685;-67
2023/07/21 05:01:15;;;;;;;1.35;1.10;;;18.50;99.20;;;;;;5113907;28;20191;-67
2023/07/21 05:03:42;;;;;;;1.33;1.00;;;18.50;99.20;;;;;;5112625;28;20240;-67
2023/07/21 05:06:10;;;;;;;1.10;0.80;;;18.50;99.20;;;;;;5109734;28;20203;-67
2023/07/21 05:08:39;;;;;;;0.90;0.90;;;18.50;99.20;;;;;;5095303;28;20208;-67
2023/07/21 05:11:09;;;;;;;0.88;0.85;;;18.50;99.30;;;;;;5094056;28;20219;-67
2023/07/21 05:13:38;;;;;;;1.02;0.93;;;18.50;99.30;;;;;;5095260;28;20647;-67
2023/07/21 05:16:17;;;;;;;0.70;0.70;;;18.50;99.30;;;;;;5092228;28;20208;-67
2023/07/21 05:19:02;;;;;;;2.55;0.95;;;18.50;99.30;;;;;;5113237;28;20284;-67
2023/07/21 05:21:48;;;;;;;1.23;0.88;;;18.60;99.30;;;;;;5112874;28;20222;-67
2023/07/21 05:24:42;;;;;;;0.90;0.90;;;18.60;99.30;;;;;;5094220;28;20227;-66
2023/07/21 05:27:10;;;;;;;0.80;0.80;;;18.70;99.30;;;;;;5094516;28;20670;-66
2023/07/21 05:29:48;;;;;;;0.98;0.98;;;18.70;99.30;;;;;;5085442;28;20808;-66
2023/07/21 05:32:18;;;;;;;0.70;0.70;;;18.70;99.30;;;;;;5087018;28;20261;-66
2023/07/21 05:34:53;;;;;;;0.70;0.70;;;18.80;99.30;;;;;;5095955;28;20192;-66
2023/07/21 05:37:20;;;;;;;0.80;0.80;;;18.80;99.30;;;;;;5088953;28;20220;-66
2023/07/21 05:39:49;;;;;;;0.80;0.80;;;18.90;99.30;;;;;;5093353;28;20199;-66
2023/07/21 05:42:21;;;;;;;0.73;0.70;;;18.90;99.30;;;;;;5094442;28;20287;-67
2023/07/21 05:44:48;;;;;;;0.80;0.80;;;19.00;99.30;;;;;;5094425;28;20291;-67
2023/07/21 05:47:19;;;;;;;1.65;0.88;;;19.00;99.30;;;;;;5094452;28;20565;-67
2023/07/21 05:49:50;;;;;;;1.02;0.82;;;19.10;99.30;;;;;;5088133;28;20207;-68
2023/07/21 05:52:18;;;;;;;0.80;0.80;;;19.10;99.30;;;;;;5093515;28;20196;-66
2023/07/21 05:54:47;;;;;;;3.38;0.80;;;19.20;99.40;;;;;;5112118;28;20674;-66
2023/07/21 05:57:14;;;;;;;1.17;1.00;;;19.20;99.30;;;;;;5093467;28;20216;-67
2023/07/21 05:59:45;;;;;;;1.45;0.93;;;19.20;99.40;;;;;;5093838;28;20204;-67
2023/07/21 06:02:13;;;;;;;0.85;0.80;;;19.20;99.40;;;;;;5089919;28;20667;-67
2023/07/21 06:04:46;;;;;;;1.80;0.93;;;19.20;99.40;;;;;;5083153;28;20303;-67
2023/07/21 06:07:42;;;;;;;1.52;1.10;;;19.20;99.30;;;;;;5086255;28;20199;-67
2023/07/21 06:10:21;;;;;;;0.82;0.82;;;19.30;99.30;;;;;;5099633;28;20223;-67
2023/07/21 06:12:58;;;;;;;2.15;0.85;;;19.30;99.30;;;;;;5107934;28;20187;-67
2023/07/21 06:15:34;;;;;;;1.25;1.10;;;19.30;99.10;;;;;;5092316;28;20217;-67
2023/07/21 06:18:24;;;;;;;1.85;1.10;;;19.30;99.00;;;;;;5092957;28;20196;-67
2023/07/21 06:20:53;;;;;;;1.52;0.98;;;19.30;98.90;;;;;;5091102;28;20622;-68
2023/07/21 06:23:22;;;;;;;2.22;0.88;;;19.40;98.80;;;;;;5086605;28;20195;-68
2023/07/21 06:25:49;;;;;;;3.15;0.93;;;19.40;98.80;;;;;;5081020;28;20204;-67
2023/07/21 06:28:18;;;;;;;2.50;1.02;;;19.50;98.70;;;;;;5084999;28;20196;-69
2023/07/21 06:30:45;;;;;;;1.00;0.70;;;19.50;98.50;;;;;;5107580;28;20868;-69
2023/07/21 06:33:22;;;;;;;0.68;0.68;;;19.60;98.40;;;;;;5090779;28;20196;-69
2023/07/21 06:35:58;;;;;;;0.95;0.70;;;19.60;98.40;;;;;;5089050;28;20636;-70
2023/07/21 06:38:48;;;;;;;0.60;0.60;;;19.70;98.30;;;;;;5098806;28;20191;-69
2023/07/21 06:41:29;;;;;;;0.70;0.63;;;19.80;98.10;;;;;;5087177;28;20239;-69
2023/07/21 06:44:12;;;;;;;0.85;0.70;;;19.90;97.90;;;;;;5078318;28;20203;-69
2023/07/21 06:46:47;;;;;;;1.48;0.80;;;19.90;97.60;;;;;;5107312;28;20191;-68
2023/07/21 06:49:34;;;;;;;0.80;0.80;;;20.00;96.90;;;;;;5106225;28;20200;-68
2023/07/21 06:52:09;;;;;;;1.38;0.95;;;19.90;95.80;;;;;;5085056;28;20283;-69
2023/07/21 06:54:38;;;;;;;0.77;0.77;;;19.90;95.50;;;;;;5106779;28;20195;-68
2023/07/21 06:57:06;;;;;;;1.27;0.80;;;19.90;95.20;;;;;;5086324;28;20215;-69
2023/07/21 06:59:34;;;;;;;0.90;0.90;;;19.90;95.20;;;;;;5101244;28;20280;-68
2023/07/21 07:02:01;;;;;;;0.70;0.70;;;19.90;95.10;;;;;;5087036;28;20199;-69
2023/07/21 07:04:28;;;;;;;0.70;0.70;;;20.00;94.80;;;;;;5102388;28;20195;-68
2023/07/21 07:06:56;;;;;;;1.50;0.88;;;20.00;94.70;;;;;;5092848;28;20184;-67
2023/07/21 07:09:25;;;;;;;1.20;0.80;;;20.10;94.60;;;;;;5084443;28;20237;-68
2023/07/21 07:11:52;;;;;;;0.60;0.57;;;20.10;94.40;;;;;;5100802;28;20188;-68
2023/07/21 07:14:19;;;;;;;1.08;0.93;;;20.20;94.40;;;;;;5080523;28;20694;-68
2023/07/21 07:16:46;;;;;;;2.33;1.10;;;20.20;94.20;;;;;;5079049;28;20223;-68
2023/07/21 07:19:13;;;;;;;2.05;1.10;;;20.20;94.20;;;;;;5095092;28;20188;-68
2023/07/21 07:21:41;;;;;;;0.80;0.80;;;20.10;94.20;;;;;;5107168;28;20199;-68
2023/07/21 07:24:12;;;;;;;1.38;0.80;;;20.20;93.90;;;;;;5088318;28;20192;-69
2023/07/21 07:26:40;;;;;;;1.20;0.90;;;20.20;93.70;;;;;;5090900;28;20200;-68
2023/07/21 07:29:07;;;;;;;0.77;0.77;;;20.20;93.60;;;;;;5103512;28;20203;-69
2023/07/21 07:31:36;;;;;;;0.90;0.70;;;20.30;93.60;;;;;;5109562;28;20235;-68
2023/07/21 07:34:03;;;;;;;0.82;0.73;;;20.30;93.50;;;;;;5099149;28;20536;-68
2023/07/21 07:36:31;;;;;;;0.40;0.40;;;20.40;93.40;;;;;;5107110;28;20217;-67
2023/07/21 07:38:58;;;;;;;0.55;0.55;;;20.50;93.30;;;;;;5103246;28;20192;-68
2023/07/21 07:41:25;;;;;;;0.70;0.70;;;20.60;93.20;;;;;;5101859;28;20216;-68
2023/07/21 07:43:54;;;;;;;0.60;0.60;;;20.60;93.10;;;;;;5089065;28;20616;-68
2023/07/21 07:46:21;;;;;;;0.77;0.77;;;20.70;93.00;;;;;;5105684;28;20673;-68
2023/07/21 07:48:48;;;;;;;0.98;0.90;;;20.80;92.90;;;;;;5084209;28;20203;-69
2023/07/21 07:51:15;;;;;;;0.52;0.52;;;20.80;92.70;;;;;;5101689;28;20644;-68
2023/07/21 07:53:42;;;;;;;0.70;0.70;;;20.90;92.70;;;;;;5102881;28;20197;-69
2023/07/21 07:56:15;;;;;;;0.60;0.60;;;20.90;92.70;;;;;;5101161;28;20212;-68
2023/07/21 07:58:42;;;;;;;0.70;0.70;;;21.00;92.90;;;;;;5104072;28;20691;-68
2023/07/21 08:01:13;;;;;;;0.80;0.80;;;21.00;92.20;;;;;;5108673;28;20593;-68
2023/07/21 08:03:43;;;;;;;0.70;0.70;;;21.00;92.00;;;;;;5105521;28;20203;-69
2023/07/21 08:06:11;;;;;;;1.02;0.98;;;21.00;91.90;;;;;;5100650;28;20210;-70
2023/07/21 08:08:38;;;;;;;0.85;0.85;;;21.00;91.80;;;;;;5108818;28;20268;-70
2023/07/21 08:11:06;;;;;;;2.75;0.77;;;21.00;91.40;;;;;;5105059;28;20230;-69
2023/07/21 08:13:34;;;;;;;0.70;0.70;;;21.00;91.10;;;;;;5109596;28;20292;-70
2023/07/21 08:16:01;;;;;;;1.67;0.93;;;21.10;91.10;;;;;;5107968;28;20565;-70
2023/07/21 08:18:29;;;;;;;1.15;1.00;;;21.10;90.90;;;;;;5086886;28;20554;-69
2023/07/21 08:20:56;;;;;;;1.02;0.93;;;21.20;90.70;;;;;;5106822;28;20263;-69
2023/07/21 08:23:23;;;;;;;1.13;1.08;;;21.30;90.80;;;;;;5109245;28;20192;-68
2023/07/21 08:25:51;;;;;;;0.95;0.90;;;21.40;90.70;;;;;;5107895;28;20587;-69
2023/07/21 08:28:18;;;;;;;1.05;0.80;;;21.40;90.50;;;;;;5089932;28;20192;-69
2023/07/21 08:30:45;;;;;;;0.95;0.90;;;21.50;90.50;;;;;;5108088;28;20255;-69
2023/07/21 08:33:13;;;;;;;1.63;0.98;;;21.50;90.20;;;;;;5108476;28;20208;-69
2023/07/21 08:35:41;;;;;;;0.73;0.73;;;21.50;90.10;;;;;;5108164;28;20610;-69
2023/07/21 08:38:09;;;;;;;0.98;0.80;;;21.50;90.20;;;;;;5106028;28;20203;-68
2023/07/21 08:40:36;;;;;;;0.65;0.65;;;21.50;90.20;;;;;;5104687;28;20783;-68
2023/07/21 08:43:04;;;;;;;1.67;0.88;;;21.50;90.20;;;;;;5108362;28;20188;-69
2023/07/21 08:45:33;;;;;;;0.80;0.80;;;21.60;90.50;;;;;;5090002;28;20268;-68
2023/07/21 08:48:06;;;;;;;1.65;1.10;;;21.60;90.10;;;;;;5092446;28;20529;-69
2023/07/21 08:50:36;;;;;;;1.23;1.08;;;21.50;89.80;;;;;;5105687;28;20567;-69
2023/07/21 08:53:05;;;;;;;0.88;0.88;;;21.50;90.20;;;;;;5100794;28;20636;-69
2023/07/21 08:55:34;;;;;;;0.80;0.80;;;21.50;90.00;;;;;;5084103;28;20543;-68
2023/07/21 08:58:01;;;;;;;0.70;0.70;;;21.50;90.00;;;;;;5101401;28;20281;-68
2023/07/21 09:00:28;;;;;;;1.17;0.80;;;21.50;89.50;;;;;;5107300;28;20203;-68
2023/07/21 09:03:01;;;;;;;0.95;0.77;;;21.60;89.30;;;;;;5104486;28;20200;-68
2023/07/21 09:05:28;;;;;;;1.45;0.88;;;21.80;89.20;;;;;;5103983;28;20189;-69
2023/07/21 09:07:56;;;;;;;0.80;0.80;;;22.00;89.00;;;;;;5086231;28;20210;-68
2023/07/21 09:10:34;;;;;;;1.33;1.00;;;22.20;88.30;;;;;;5107678;28;20230;-69
2023/07/21 09:13:04;;;;;;;1.52;1.13;;;22.30;87.10;;;;;;5106103;28;20192;-68
2023/07/21 09:15:31;;;;;;;1.00;1.00;;;22.40;85.10;;;;;;5089971;28;20570;-68
2023/07/21 09:18:01;;;;;;;0.90;0.90;;;22.40;84.90;;;;;;5100484;28;20207;-68
2023/07/21 09:20:30;;;;;;;0.65;0.60;;;22.40;85.10;;;;;;5088756;28;20216;-68
2023/07/21 09:22:58;;;;;;;0.80;0.80;;;22.40;85.20;;;;;;5107502;28;20257;-68
2023/07/21 09:25:25;;;;;;;1.08;0.98;;;22.30;84.60;;;;;;5107770;28;20210;-68
2023/07/21 09:27:57;;;;;;;0.80;0.80;;;22.20;84.50;;;;;;5099100;28;20214;-68
2023/07/21 09:30:25;;;;;;;1.17;1.08;;;22.10;84.70;;;;;;5101724;28;20228;-68
2023/07/21 09:32:56;;;;;;;1.33;1.20;;;22.00;84.20;;;;;;5108516;28;20195;-69
2023/07/21 09:35:23;;;;;;;1.00;1.00;;;21.90;83.80;;;;;;5109829;28;20240;-68
2023/07/21 09:37:52;;;;;;;0.98;0.98;;;21.80;84.10;;;;;;5093033;28;20227;-68
2023/07/21 09:40:28;;;;;;;1.10;1.02;;;21.80;84.50;;;;;;5108364;28;20206;-68
2023/07/21 09:42:56;;;;;;;1.83;1.20;;;22.00;84.60;;;;;;5108641;28;20234;-68
2023/07/21 09:45:25;;;;;;;1.02;1.02;;;22.20;84.60;;;;;;5109110;28;20194;-68
2023/07/21 09:47:53;;;;;;;1.15;1.00;;;22.30;84.00;;;;;;5103143;28;20204;-67
2023/07/21 09:50:21;;;;;;;0.90;0.90;;;22.50;83.60;;;;;;5108353;28;20199;-68
2023/07/21 09:52:49;;;;;;;1.13;1.02;;;22.60;82.70;;;;;;5109162;28;20204;-68
2023/07/21 09:55:18;;;;;;;1.52;1.10;;;22.60;81.70;;;;;;5092374;28;20276;-68
2023/07/21 09:57:47;;;;;;;1.20;1.08;;;22.50;80.70;;;;;;5110459;28;20212;-68
2023/07/21 10:00:17;;;;;;;1.40;0.90;;;22.40;80.90;;;;;;5110454;28;20203;-68
2023/07/21 10:02:46;;;;;;;0.60;0.60;;;22.40;81.50;;;;;;5107133;28;20280;-68
2023/07/21 10:05:13;;;;;;;0.60;0.60;;;22.40;82.20;;;;;;5106828;28;20275;-68
2023/07/21 10:07:43;;;;;;;0.70;0.70;;;22.50;82.60;;;;;;5108734;28;20643;-68
2023/07/21 10:10:12;;;;;;;0.60;0.60;;;22.60;82.80;;;;;;5109249;28;20647;-67
2023/07/21 10:12:46;;;;;;;0.70;0.70;;;22.70;82.60;;;;;;5108407;28;20598;-68
2023/07/21 10:15:19;;;;;;;0.50;0.50;;;22.80;82.30;;;;;;5097157;28;20670;-68
2023/07/21 10:17:56;;;;;;;0.75;0.60;;;22.90;82.10;;;;;;5109328;28;20699;-68
2023/07/21 10:20:41;;;;;;;0.50;0.50;;;23.00;82.00;;;;;;5087179;28;20230;-67
2023/07/21 10:23:10;;;;;;;0.47;0.47;;;23.10;82.40;;;;;;5105155;28;20640;-68
2023/07/21 10:26:00;;;;;;;0.80;0.80;;;23.30;81.50;;;;;;5108309;28;20192;-68
2023/07/21 10:28:37;;;;;;;0.50;0.50;;;23.40;81.20;;;;;;5107446;28;20666;-68
2023/07/21 10:31:36;;;;;;;0.50;0.50;;;23.50;81.00;;;;;;5088315;28;20235;-68
2023/07/21 10:34:10;;;;;;;0.70;0.70;;;23.60;81.00;;;;;;5086398;28;20292;-67
2023/07/21 10:36:42;;;;;;;0.60;0.60;;;23.70;81.00;;;;;;5088388;28;20567;-67
2023/07/21 10:39:10;;;;;;;0.50;0.50;;;23.80;81.10;;;;;;5087638;28;20445;-68
2023/07/21 10:41:38;;;;;;;0.52;0.52;;;23.90;81.20;;;;;;5077658;28;20284;-68
2023/07/21 10:44:07;;;;;;;0.50;0.50;;;23.90;81.00;;;;;;5083912;28;20308;-68
2023/07/21 10:46:38;;;;;;;0.45;0.45;;;23.90;81.10;;;;;;5090633;28;20341;-68
2023/07/21 10:49:06;;;;;;;2.17;0.50;;;23.90;81.30;;;;;;5085915;28;20192;-67
2023/07/21 10:51:33;;;;;;;0.80;0.70;;;23.90;81.40;;;;;;5087179;28;20279;-67
2023/07/21 10:54:00;;;;;;;0.95;0.77;;;23.80;81.50;;;;;;5082976;28;20189;-68
2023/07/21 10:56:27;;;;;;;1.05;0.90;;;23.70;81.80;;;;;;5089959;28;20200;-68
2023/07/21 10:58:55;;;;;;;0.90;0.90;;;23.50;82.30;;;;;;5088424;28;20212;-68
2023/07/21 11:01:23;;;;;;;0.82;0.82;;;23.40;82.80;;;;;;5084168;28;20255;-69
2023/07/21 11:03:51;;;;;;;0.68;0.68;;;23.20;83.90;;;;;;5085285;28;20633;-68
2023/07/21 11:06:18;;;;;;;0.65;0.65;;;23.00;85.10;;;;;;5088088;28;20192;-68
2023/07/21 11:08:45;;;;;;;0.63;0.63;;;22.80;86.20;;;;;;5084657;28;20241;-68
2023/07/21 11:11:12;;;;;;;0.70;0.70;;;22.70;88.00;;;;;;5088545;28;20617;-68
2023/07/21 11:13:39;;;;;;;0.80;0.80;;;22.60;88.00;;;;;;5087284;28;20206;-68
2023/07/21 11:16:07;;;;;;;0.80;0.80;;;22.50;88.80;;;;;;5085811;28;20275;-68
2023/07/21 11:18:34;;;;;;;0.95;0.90;;;22.50;89.60;;;;;;5088422;28;20326;-67
2023/07/21 11:21:02;;;;;;;0.80;0.80;;;22.40;90.30;;;;;;5086512;28;20200;-68
2023/07/21 11:23:32;;;;;;;0.73;0.73;;;22.30;90.30;;;;;;5088594;28;20618;-69
2023/07/21 11:26:02;;;;;;;0.50;0.50;;;22.20;90.60;;;;;;5086769;28;20215;-68
2023/07/21 11:28:29;;;;;;;0.77;0.77;;;22.20;91.00;;;;;;5102952;28;20228;-68
2023/07/21 11:30:56;;;;;;;0.70;0.70;;;22.10;91.10;;;;;;5099596;28;20227;-68
2023/07/21 11:33:24;;;;;;;0.77;0.77;;;22.10;91.30;;;;;;5103262;28;20196;-68
2023/07/21 11:35:51;;;;;;;0.80;0.80;;;22.10;91.50;;;;;;5101198;28;20779;-68
2023/07/21 11:38:20;;;;;;;0.73;0.73;;;22.10;91.60;;;;;;5107769;28;20199;-68
2023/07/21 11:40:48;;;;;;;0.80;0.80;;;22.10;91.80;;;;;;5090372;28;20211;-69
2023/07/21 11:43:15;;;;;;;0.70;0.70;;;22.10;91.80;;;;;;5109734;28;20670;-68
2023/07/21 11:45:43;;;;;;;0.65;0.65;;;22.30;91.90;;;;;;5107413;28;20206;-68
2023/07/21 11:48:17;;;;;;;0.75;0.75;;;22.40;91.90;;;;;;5108981;28;20284;-68
2023/07/21 11:50:50;;;;;;;1.25;1.15;;;22.60;91.90;;;;;;5102710;28;20218;-67
2023/07/21 11:53:18;;;;;;;1.35;1.27;;;22.80;92.00;;;;;;5109150;28;20241;-68
2023/07/21 11:55:46;;;;;;;1.25;1.15;;;23.00;91.70;;;;;;5101588;28;20215;-68
2023/07/21 11:58:13;;;;;;;0.90;0.90;;;23.10;91.40;;;;;;5109102;28;20211;-68
2023/07/21 12:00:41;;;;;;;0.80;0.80;;;23.20;91.00;;;;;;5088028;28;20512;-69
2023/07/21 12:03:10;;;;;;;0.80;0.80;;;23.10;90.70;;;;;;5105471;28;20344;-69
2023/07/21 12:05:38;;;;;;;0.95;0.85;;;23.10;90.50;;;;;;5100357;28;20195;-68
2023/07/21 12:08:06;;;;;;;0.80;0.80;;;23.20;90.20;;;;;;5109001;28;20356;-68
2023/07/21 12:10:33;;;;;;;0.60;0.60;;;23.30;90.00;;;;;;5099679;28;20272;-68
2023/07/21 12:13:03;;;;;;;0.70;0.70;;;23.50;89.70;;;;;;5108761;28;20202;-68
2023/07/21 12:15:31;;;;;;;0.60;0.60;;;23.50;88.80;;;;;;5080124;28;20224;-68
2023/07/21 12:17:58;;;;;;;0.80;0.80;;;23.60;88.50;;;;;;5106715;28;20567;-66
2023/07/21 12:20:26;;;;;;;0.80;0.80;;;23.60;88.40;;;;;;5104301;28;20195;-68
2023/07/21 12:22:53;;;;;;;1.00;0.60;;;23.70;88.50;;;;;;5108298;28;20654;-67
2023/07/21 12:25:20;;;;;;;0.65;0.60;;;23.70;88.80;;;;;;5083952;28;20223;-68
2023/07/21 12:27:47;;;;;;;1.10;0.95;;;23.70;89.20;;;;;;5107745;28;20650;-68
2023/07/21 12:30:16;;;;;;;0.70;0.70;;;23.60;89.50;;;;;;5102142;28;20299;-67
2023/07/21 12:32:43;;;;;;;1.75;0.65;;;23.60;90.00;;;;;;5102255;28;20432;-68
2023/07/21 12:35:10;;;;;;;0.88;0.88;;;23.60;90.10;;;;;;5108257;28;20481;-67
2023/07/21 12:37:39;;;;;;;0.70;0.70;;;23.70;90.20;;;;;;5090033;28;20705;-67
2023/07/21 12:40:12;;;;;;;0.70;0.70;;;23.70;90.30;;;;;;5100054;28;20269;-67
2023/07/21 12:42:39;;;;;;;0.70;0.68;;;23.80;90.30;;;;;;5108796;28;20272;-67
2023/07/21 12:45:07;;;;;;;0.52;0.52;;;23.80;90.30;;;;;;5108181;28;20203;-67
2023/07/21 12:47:36;;;;;;;0.75;0.75;;;23.80;90.20;;;;;;5108565;28;20245;-68
2023/07/21 12:50:03;;;;;;;0.73;0.73;;;23.80;90.30;;;;;;5108427;28;20200;-68
2023/07/21 12:52:30;;;;;;;1.38;0.75;;;23.70;90.30;;;;;;5107956;28;20192;-68
2023/07/21 12:54:57;;;;;;;1.92;1.10;;;23.60;90.40;;;;;;5083546;28;20192;-68
2023/07/21 12:57:25;;;;;;;1.50;1.20;;;23.50;90.30;;;;;;5106499;28;20241;-68
2023/07/21 12:59:52;;;;;;;1.10;1.00;;;23.40;90.30;;;;;;5106427;28;20188;-68